Latest Coastal Weather Observations for Legendre Island

IDW60701

Issued at 6:33 pm WST Friday 20 April 2018 (issued every 10 minutes, with the page automatically refreshed every 10 minutes)

About coastal observations | Map of coastal stations | Coastal observations for WA | Marine services | Other Formats
Station Details ID: 004095 Name: LEGENDRE ISLAND Lat: -20.36 Lon: 116.84 Height: 29.0 m
Data from the previous 72 hours. | See also: Recent months at Legendre Island
Date/Time
WST
Temp
°C
Wind Pressure Rain since
9am
mm
Weather Cloud Vis
km
Sea
Height
m
Swell
Dir  Spd
kts
Gust
kts
hPa Trend Height
m
Period
s
Dir
20/06:30pm 29.6 N 8 9 1010.6 - - - - - - - - -
20/06:00pm 29.6 N 7 9 1010.3 - - - - - - - - -
20/05:30pm 30.2 N 7 8 1010.0 - - - - - - - - -
20/05:00pm 30.6 N 7 8 1009.7 - - - - - - - - -
20/04:30pm 31.3 N 8 9 1009.5 - - - - - - - - -
20/04:00pm 31.5 N 8 9 1009.5 - - - - - - - - -
20/03:30pm 31.8 NNW 7 8 1009.3 - - - - - - - - -
20/03:00pm 31.9 N 7 8 1009.4 - - - - - - - - -
20/02:30pm 31.7 N 6 7 1009.4 - - - - - - - - -
20/02:00pm 33.0 N 6 7 1009.6 - - - - - - - - -
20/01:30pm 33.1 NNE 3 4 1009.9 - - - - - - - - -
20/01:00pm 33.0 NNE 3 3 1010.2 - - - - - - - - -
20/12:30pm 33.1 N 3 5 1010.4 - - - - - - - - -
20/12:00pm 33.4 SSW 5 8 1010.6 - - - - - - - - -
20/11:30am 32.4 SSW 7 9 1010.9 - - - - - - - - -
20/11:00am 32.6 SW 9 11 1011.1 - - - - - - - - -
20/10:30am 31.3 SW 10 12 1011.4 - - - - - - - - -
20/10:00am 31.0 SW 12 14 1011.4 - - - - - - - - -
20/09:30am 31.1 WSW 11 13 1011.4 - - - - - - - - -
20/09:00am 30.6 WSW 11 13 1011.4 - - - - - - - - -
20/08:30am 30.0 WSW 11 13 1011.3 - - - - - - - - -
20/08:00am 29.6 WSW 8 10 1011.1 - - - - - - - - -
20/07:30am 28.2 WSW 9 9 1011.1 - - - - - - - - -
20/07:00am 27.1 WSW 6 7 1011.1 - - - - - - - - -
20/06:30am 26.9 W 7 8 1010.8 - - - - - - - - -
20/06:00am 26.9 WNW 7 8 1010.5 - - - - - - - - -
20/05:30am 27.2 WNW 6 7 1010.4 - - - - - - - - -
20/05:00am 27.1 WNW 7 7 1010.3 - - - - - - - - -
20/04:30am 27.1 NW 7 8 1010.3 - - - - - - - - -
20/04:00am 27.1 NW 6 7 1010.1 - - - - - - - - -
20/03:30am 27.3 NW 7 8 1010.3 - - - - - - - - -
20/03:00am 27.3 WNW 7 8 1010.3 - - - - - - - - -
20/02:30am 27.6 W 8 10 1010.5 - - - - - - - - -
20/02:00am 27.7 W 9 11 1010.6 - - - - - - - - -
20/01:30am 27.7 W 7 9 1010.4 - - - - - - - - -
20/01:00am 27.7 W 7 9 1010.6 - - - - - - - - -
20/12:30am 28.0 W 9 11 1010.8 - - - - - - - - -
20/12:00am 28.1 W 10 12 1010.7 - - - - - - - - -
 
Date/Time
WST
Temp
°C
Wind Pressure Rain since
9am
mm
Weather Cloud Vis
km
Sea
Height
m
Swell
Dir  Spd
kts
Gust
kts
hPa Trend Height
m
Period
s
Dir
19/11:30pm 28.1 WNW 9 11 1010.5 - - - - - - - - -
19/11:00pm 28.2 WNW 9 11 1010.6 - - - - - - - - -
19/10:30pm 28.2 NW 8 10 1010.8 - - - - - - - - -
19/10:00pm 28.4 WNW 10 12 1010.6 - - - - - - - - -
19/09:30pm 28.5 WNW 9 11 1010.5 - - - - - - - - -
19/09:00pm 28.6 NW 10 12 1010.3 - - - - - - - - -
19/08:30pm 28.7 NW 9 11 1010.2 - - - - - - - - -
19/08:00pm 28.7 NW 8 10 1009.9 - - - - - - - - -
19/07:30pm 29.4 NNW 8 11 1009.6 - - - - - - - - -
19/07:00pm 29.1 NNW 8 11 1009.2 - - - - - - - - -
19/06:30pm 29.2 NNW 7 10 1009.0 - - - - - - - - -
19/06:00pm 29.5 NW 5 6 1008.8 - - - - - - - - -
19/05:30pm 31.1 NW 3 5 1008.7 - - - - - - - - -
19/05:00pm 31.7 NNW 4 5 1008.5 - - - - - - - - -
19/04:30pm 33.0 NW 5 6 1008.5 - - - - - - - - -
19/04:00pm 32.4 NNW 5 6 1008.5 - - - - - - - - -
19/03:30pm 32.0 N 5 5 1008.5 - - - - - - - - -
19/03:00pm 32.1 N 5 5 1008.4 - - - - - - - - -
19/02:30pm 32.0 N 5 6 1008.6 - - - - - - - - -
19/02:00pm 32.2 NNE 5 5 1008.8 - - - - - - - - -
19/01:30pm 32.6 NNE 4 5 1009.1 - - - - - - - - -
19/01:00pm 32.9 NNE 4 5 1009.4 - - - - - - - - -
19/12:30pm 32.8 NNE 6 7 1009.7 - - - - - - - - -
19/12:00pm 32.1 NE 4 5 1010.0 - - - - - - - - -
19/11:30am 32.5 NE 4 4 1010.3 - - - - - - - - -
19/11:00am 32.3 NNE 4 5 1010.8 - - - - - - - - -
19/10:30am 32.2 NNE 3 4 1011.1 - - - - - - - - -
19/10:00am 33.3 ESE 3 7 1011.4 - - - - - - - - -
19/09:30am 32.1 SSW 3 6 1011.3 - - - - - - - - -
19/09:00am 31.1 SSW 5 7 1011.4 - - - - - - - - -
19/08:30am 30.9 SSW 5 7 1011.3 - - - - - - - - -
19/08:00am 29.9 SW 7 8 1011.0 - - - - - - - - -
19/07:30am 28.4 WSW 7 7 1010.7 - - - - - - - - -
19/07:00am 25.9 SW 7 8 1010.3 - - - - - - - - -
19/06:30am 26.6 SSW 5 6 1010.4 - - - - - - - - -
19/06:00am 25.7 SSW 7 8 1010.3 - - - - - - - - -
19/05:30am 25.7 SSW 8 8 1010.0 - - - - - - - - -
19/05:00am 26.2 SSW 8 9 1010.2 - - - - - - - - -
19/04:30am 26.4 SSW 8 10 1010.2 - - - - - - - - -
19/04:00am 26.7 SSW 9 10 1010.2 - - - - - - - - -
19/03:30am 26.7 SSW 8 9 1010.3 - - - - - - - - -
19/03:00am 27.7 SW 11 13 1010.2 - - - - - - - - -
19/02:30am 27.6 SW 11 13 1010.4 - - - - - - - - -
19/02:00am 27.4 SW 9 11 1010.6 - - - - - - - - -
19/01:30am 27.7 SW 14 16 1010.4 - - - - - - - - -
19/01:00am 27.7 SW 11 13 1010.5 - - - - - - - - -
19/12:30am 28.1 SW 11 13 1010.7 - - - - - - - - -
19/12:00am 27.7 SSW 10 13 1010.9 - - - - - - - - -
 
Date/Time
WST
Temp
°C
Wind Pressure Rain since
9am
mm
Weather Cloud Vis
km
Sea
Height
m
Swell
Dir  Spd
kts
Gust
kts
hPa Trend Height
m
Period
s
Dir
18/11:30pm 27.6 WSW 10 12 1010.9 - - - - - - - - -
18/11:00pm 27.1 WSW 9 10 1011.1 - - - - - - - - -
18/10:30pm 27.4 W 9 10 1011.3 - - - - - - - - -
18/10:00pm 27.5 W 9 11 1011.5 - - - - - - - - -
18/09:30pm 27.9 W 8 9 1011.5 - - - - - - - - -
18/09:00pm 28.0 NW 7 10 1011.4 - - - - - - - - -
18/08:30pm 28.3 NW 9 10 1011.4 - - - - - - - - -
18/08:00pm 28.6 WNW 9 11 1011.1 - - - - - - - - -
18/07:30pm 28.8 WNW 9 11 1010.7 - - - - - - - - -
18/07:00pm 29.2 NW 12 14 1010.4 - - - - - - - - -
18/06:30pm 29.5 NW 12 14 1010.0 - - - - - - - - -
18/06:00pm 29.9 NNW 11 15 1009.9 - - - - - - - - -
18/05:30pm 30.6 NNW 13 17 1009.7 - - - - - - - - -
18/05:00pm 31.3 NNE 9 10 1009.5 - - - - - - - - -
18/04:30pm 32.2 NNE 7 9 1009.5 - - - - - - - - -
18/04:00pm 32.9 NE 9 10 1009.5 - - - - - - - - -
18/03:30pm 33.5 NE 8 9 1009.5 - - - - - - - - -
18/03:00pm 33.9 NE 9 11 1009.4 - - - - - - - - -
18/02:30pm 33.7 NE 10 11 1009.6 - - - - - - - - -
18/02:00pm 33.9 NE 12 13 1009.8 - - - - - - - - -
18/01:30pm 33.7 ENE 13 15 1010.0 - - - - - - - - -
18/01:00pm 33.5 E 13 15 1010.4 - - - - - - - - -
18/12:30pm 33.3 E 14 16 1010.8 - - - - - - - - -
18/12:00pm 33.1 E 13 15 1011.3 - - - - - - - - -
18/11:30am 33.6 E 14 16 1011.7 - - - - - - - - -
18/11:00am 33.3 ESE 13 14 1012.2 - - - - - - - - -
18/10:30am 33.8 ESE 11 13 1012.6 - - - - - - - - -
18/10:00am 33.1 ESE 10 13 1012.9 - - - - - - - - -
18/09:30am 33.1 ESE 10 12 1013.0 - - - - - - - - -
18/09:00am 32.7 ESE 10 11 1012.9 - - - - - - - - -
18/08:30am 32.4 SE 9 12 1012.7 - - - - - - - - -
18/08:00am 29.6 SSE 9 11 1012.7 - - - - - - - - -
18/07:30am 27.4 S 5 6 1012.6 - - - - - - - - -
18/07:00am 25.8 SSW 5 7 1012.5 - - - - - - - - -
18/06:30am 24.9 SSW 8 9 1012.2 - - - - - - - - -
18/06:00am 24.9 SSW 7 8 1012.1 - - - - - - - - -
18/05:30am 25.5 SSW 8 8 1011.7 - - - - - - - - -
18/05:00am 25.7 SSW 6 7 1011.6 - - - - - - - - -
18/04:30am 26.2 SW 9 10 1011.5 - - - - - - - - -
18/04:00am 26.6 SSW 8 11 1011.5 - - - - - - - - -
18/03:30am 27.0 SSW 12 13 1011.5 - - - - - - - - -
18/03:00am 27.1 SW 11 14 1011.7 - - - - - - - - -
18/02:30am 27.3 SW 11 14 1011.7 - - - - - - - - -
18/02:00am 27.4 SW 11 13 1011.9 - - - - - - - - -
18/01:30am 27.5 SW 10 12 1012.0 - - - - - - - - -
18/01:00am 27.7 SW 11 13 1012.2 - - - - - - - - -
18/12:30am 27.8 SW 12 14 1012.2 - - - - - - - - -
18/12:00am 27.9 SW 11 15 1012.6 - - - - - - - - -
 
Date/Time
WST
Temp
°C
Wind Pressure Rain since
9am
mm
Weather Cloud Vis
km
Sea
Height
m
Swell
Dir  Spd
kts
Gust
kts
hPa Trend Height
m
Period
s
Dir
17/11:30pm 28.5 SW 13 15 1012.6 - - - - - - - - -
17/11:00pm 28.6 SW 16 19 1012.6 - - - - - - - - -
17/10:30pm 28.5 WSW 14 16 1012.6 - - - - - - - - -
17/10:00pm 28.2 W 10 13 1012.8 - - - - - - - - -
17/09:30pm 28.2 WNW 10 11 1012.6 - - - - - - - - -
17/09:00pm 28.4 WNW 10 10 1012.6 - - - - - - - - -
17/08:30pm 28.6 NW 10 11 1012.5 - - - - - - - - -
17/08:00pm 28.7 NW 10 11 1012.2 - - - - - - - - -
17/07:30pm 28.8 NW 9 10 1011.9 - - - - - - - - -
17/07:00pm 29.0 NW 8 10 1011.6 - - - - - - - - -

Other Formats:

Comma delimited format used in spreadsheet applications
http://www.bom.gov.au/fwo/IDW60701/IDW60701.94307.axf

JavaScript Object Notation format (JSON) in row-major order
http://www.bom.gov.au/fwo/IDW60701/IDW60701.94307.json